Wilmington, OH

3:02 AM EDT on August 21, 2014 (GMT -0400)
Country Manor | Change Station
CLOSE
Current Station
Personal Weather Station
Location: Wilmington, OH
Elevation: 1004 ft
Nearby Weather Stations

Elev 1004 ft 39.44 °N, 83.90 °W | Updated 4 seconds ago

Partly Cloudy
Partly Cloudy
68.9 °F
Feels Like 68.9 °F
N
0.0
Wind Variable Wind from SW
Gusts 4.0 mph

Today
High -- | Low -- °F
--% Chance of Precip.
Yesterday
High -- | Low -- °F
Precip. -- in
6:53 AM 8:22 PM
Waning Crescent, 16% visible
Pressure 30.00 in
Visibility 10.0 miles
Clouds Few 11000 ft
Dew Point 66 °F
Humidity 91%
Rainfall 0.00 in
Snow Depth Not available.
UV 0 out of 12
Pollen 9.20 out of 12
Ozone Good
PM2.5 Good
Flu Activity Not available.
METAR KILN 210654Z AUTO 23007KT 10SM FEW110 21/19 A3004 RMK AO2 SLP159 T02060189

More Conditions Fewer Conditions

Pressure 30.00 in
Visibility 10.0 miles
Clouds Few 11000 ft
Dew Point 66 °F
Humidity 91%
Rainfall 0.00 in
Snow Depth Not available.
UV 0 out of 12
Pollen 9.20 out of 12
Ozone Good
PM2.5 Good
Flu Activity Not available.
METAR KILN 210654Z AUTO 23007KT 10SM FEW110 21/19 A3004 RMK AO2 SLP159 T02060189

More Conditions Fewer Conditions

10-Day Weather Forecast

Almanac

Astronomy

Aug. 21, 2014 Rise Set
Actual Time 6:53 AM EDT 8:22 PM EDT
Civil Twilight 6:25 AM EDT 8:50 PM EDT
Nautical Twilight 5:51 AM EDT 9:24 PM EDT
Astronomical Twilight 5:15 AM EDT 10:00 PM EDT
Moon 3:23 AM EDT 5:50 PM EDT
Length of Visible Light 14h 25m
Length of Day
13h 29m
Tomorrow will be 2m 21s shorter.
Waning Crescent, 16% of the Moon is Illuminated
Today
Waning Crescent
Aug 25
New
Sep 2
First Quarter
Sep 8
Full
Sep 15
Last Quarter

Today's Extremes

State Highs State Lows

Community

WunderPhotos

Upload Photos

1,745,858 photos uploaded!

Nearby

Air Quality

  Air Quality AQ Index Pollutant
Yesterday Good
OZONE
Yesterday Good
PM2.5
Current Good
PM2.5
Current Good
OZONE
Thursday Moderate
PM2.5
Thursday Good
OZONE
Friday Moderate
PM2.5
Friday Good
OZONE
Saturday Moderate
PM2.5
Saturday Good
OZONE
Sunday Good
PM2.5
Sunday Good
OZONE

Snow Depth

Station Depth Elevation
No new snow has been reported.

Earthquake Activity

City Distance Mag. Time & Date
No recent earthquake activity has been reported nearby.
Minimum magnitude displayed is 2.5.

Coastal Water Temperatures

Place Temperature
No Stations Reporting

Nearby Weather Stations